createdAt,value
2018-02-24T00:00:35.555Z,0
2018-02-24T00:01:35.311Z,0
2018-02-24T00:02:35.574Z,0
2018-02-24T00:04:35.075Z,0
2018-02-24T00:05:50.095Z,0
2018-02-24T00:06:35.364Z,0
2018-02-24T00:07:35.132Z,0
2018-02-24T00:08:35.647Z,0
2018-02-24T00:09:35.657Z,0
2018-02-24T00:10:35.655Z,0
2018-02-24T00:11:35.671Z,0
2018-02-24T00:12:35.706Z,0
2018-02-24T00:13:35.684Z,0
2018-02-24T00:14:50.370Z,0
2018-02-24T00:15:35.713Z,0
2018-02-24T00:16:35.707Z,0
2018-02-24T00:17:35.733Z,0
2018-02-24T00:18:35.729Z,0
2018-02-24T00:19:35.231Z,0
2018-02-24T00:20:35.743Z,0
2018-02-24T00:21:35.790Z,0
2018-02-24T00:22:35.778Z,0
2018-02-24T00:23:35.782Z,0
2018-02-24T00:24:35.543Z,0
2018-02-24T00:25:50.475Z,0
2018-02-24T00:26:35.567Z,0
2018-02-24T00:27:35.814Z,0
2018-02-24T00:28:35.834Z,0
2018-02-24T00:29:35.853Z,0
2018-02-24T00:30:50.512Z,0
2018-02-24T00:31:35.908Z,0
2018-02-24T00:34:35.635Z,0
2018-02-24T00:35:50.559Z,0
2018-02-24T00:36:35.921Z,0
2018-02-24T00:37:35.934Z,0
2018-02-24T00:38:35.686Z,0
2018-02-24T00:40:35.950Z,0
2018-02-24T00:41:35.973Z,0
2018-02-24T00:42:35.972Z,0
2018-02-24T00:43:50.643Z,0
2018-02-24T00:44:35.996Z,0
2018-02-24T00:45:50.659Z,0
2018-02-24T00:46:36.038Z,0
2018-02-24T00:47:36.030Z,0
2018-02-24T00:48:36.059Z,0
2018-02-24T00:49:36.036Z,0
2018-02-24T00:50:36.052Z,0
2018-02-24T00:51:35.803Z,0
2018-02-24T00:52:50.773Z,0
2018-02-24T00:53:50.733Z,0
2018-02-24T00:54:36.087Z,0
2018-02-24T00:55:36.121Z,0
2018-02-24T00:56:36.100Z,0
2018-02-24T00:58:50.787Z,0
2018-02-24T00:59:36.129Z,0
2018-02-24T01:00:36.142Z,0
2018-02-24T01:01:36.174Z,0
2018-02-24T01:02:36.186Z,0
2018-02-24T01:03:36.209Z,0
2018-02-24T01:04:35.933Z,0
2018-02-24T01:05:36.339Z,0
2018-02-24T01:06:36.224Z,0
2018-02-24T01:07:36.223Z,0
2018-02-24T01:08:36.270Z,0
2018-02-24T01:09:50.909Z,0
2018-02-24T01:10:36.254Z,0
2018-02-24T01:12:36.269Z,0
2018-02-24T01:13:36.366Z,0
2018-02-24T01:14:35.767Z,0
2018-02-24T01:16:36.312Z,0
2018-02-24T01:17:50.984Z,0
2018-02-24T01:18:35.811Z,0
2018-02-24T01:19:36.113Z,0
2018-02-24T01:20:36.368Z,0
2018-02-24T01:21:36.369Z,0
2018-02-24T01:22:36.108Z,0
2018-02-24T01:23:51.023Z,0
2018-02-24T01:24:36.396Z,0
2018-02-24T01:25:51.056Z,0
2018-02-24T01:26:36.407Z,0
2018-02-24T01:27:36.425Z,0
2018-02-24T01:28:36.432Z,0
2018-02-24T01:29:36.437Z,0
2018-02-24T01:30:36.449Z,0
2018-02-24T01:31:36.449Z,0
2018-02-24T01:32:36.489Z,0
2018-02-24T01:33:51.145Z,0
2018-02-24T01:34:36.490Z,0
2018-02-24T01:35:36.233Z,0
2018-02-24T01:36:36.525Z,0
2018-02-24T01:37:36.537Z,0
2018-02-24T01:38:36.538Z,0
2018-02-24T01:39:36.535Z,0
2018-02-24T01:40:36.534Z,0
2018-02-24T01:41:36.376Z,0
2018-02-24T01:42:36.315Z,0
2018-02-24T01:43:36.578Z,0
2018-02-24T01:44:36.599Z,0
2018-02-24T01:45:51.046Z,0
2018-02-24T01:46:36.611Z,0
2018-02-24T01:47:36.648Z,0
2018-02-24T01:48:36.624Z,0
2018-02-24T01:50:05.689Z,0
2018-02-24T01:50:36.639Z,0
2018-02-24T01:51:36.660Z,0
2018-02-24T01:53:36.685Z,0
2018-02-24T01:54:36.424Z,0
2018-02-24T01:55:36.549Z,0
2018-02-24T01:56:36.184Z,0
2018-02-24T01:57:36.453Z,0
2018-02-24T01:58:36.221Z,0
2018-02-24T01:59:36.760Z,0
2018-02-24T02:00:36.501Z,0
2018-02-24T02:01:36.768Z,0
2018-02-24T02:02:36.785Z,0
2018-02-24T02:03:36.792Z,0
2018-02-24T02:04:36.799Z,0
2018-02-24T02:06:06.124Z,0
2018-02-24T02:06:36.542Z,0
2018-02-24T02:07:51.484Z,0
2018-02-24T02:08:51.497Z,0
2018-02-24T02:09:36.835Z,0
2018-02-24T02:10:36.849Z,0
2018-02-24T02:11:36.340Z,0
2018-02-24T02:12:36.368Z,0
2018-02-24T02:13:51.540Z,0
2018-02-24T02:14:36.625Z,0
2018-02-24T02:15:36.640Z,0
2018-02-24T02:16:36.642Z,0
2018-02-24T02:17:36.935Z,0
2018-02-24T02:18:36.926Z,0
2018-02-24T02:19:36.700Z,0
2018-02-24T02:21:36.972Z,0
2018-02-24T02:22:36.992Z,0
2018-02-24T02:23:36.973Z,0
2018-02-24T02:24:36.730Z,0
2018-02-24T02:25:36.747Z,0
2018-02-24T02:26:36.760Z,0
2018-02-24T02:27:37.024Z,0
2018-02-24T02:28:37.040Z,0
2018-02-24T02:29:36.799Z,0
2018-02-24T02:30:37.059Z,0
2018-02-24T02:31:51.486Z,0
2018-02-24T02:32:51.489Z,0
2018-02-24T02:33:37.109Z,0
2018-02-24T02:34:36.891Z,0
2018-02-24T02:35:37.139Z,0
2018-02-24T02:36:36.862Z,0
2018-02-24T02:37:37.152Z,0
2018-02-24T02:38:37.137Z,0
2018-02-24T02:39:37.166Z,0
2018-02-24T02:40:37.174Z,0
2018-02-24T02:41:36.645Z,0
2018-02-24T02:42:37.238Z,0
2018-02-24T02:43:51.865Z,0
2018-02-24T02:44:37.204Z,0
2018-02-24T02:45:51.888Z,0
2018-02-24T02:46:37.213Z,0
2018-02-24T02:47:37.226Z,0
2018-02-24T02:48:51.642Z,0
2018-02-24T02:49:37.017Z,0
2018-02-24T02:50:37.274Z,0
2018-02-24T02:51:51.671Z,0
2018-02-24T02:52:51.958Z,0
2018-02-24T02:53:37.297Z,0
2018-02-24T02:54:51.959Z,0
2018-02-24T02:55:37.326Z,0
2018-02-24T02:56:37.338Z,0
2018-02-24T02:57:51.749Z,0
2018-02-24T02:58:52.073Z,0
2018-02-24T02:59:37.367Z,0
2018-02-24T03:00:37.376Z,0
2018-02-24T03:01:37.106Z,0
2018-02-24T03:02:37.409Z,0
2018-02-24T03:03:37.402Z,0
2018-02-24T03:04:37.424Z,0
2018-02-24T03:05:37.445Z,0
2018-02-24T03:06:37.215Z,0
2018-02-24T03:07:36.928Z,0
2018-02-24T03:08:52.132Z,0
2018-02-24T03:09:52.130Z,0
2018-02-24T03:10:37.219Z,0
2018-02-24T03:11:52.124Z,0
2018-02-24T03:12:37.489Z,0
2018-02-24T03:13:52.159Z,0
2018-02-24T03:16:06.822Z,0
2018-02-24T03:16:37.532Z,0
2018-02-24T03:17:37.017Z,0
2018-02-24T03:18:52.202Z,0
2018-02-24T03:19:52.217Z,0
2018-02-24T03:20:51.976Z,0
2018-02-24T03:21:51.976Z,0
2018-02-24T03:22:52.004Z,0
2018-02-24T03:23:37.603Z,0
2018-02-24T03:24:52.270Z,0
2018-02-24T03:26:37.638Z,0
2018-02-24T03:28:37.377Z,0
2018-02-24T03:29:37.398Z,0
2018-02-24T03:30:37.675Z,0
2018-02-24T03:31:37.566Z,0
2018-02-24T03:32:37.439Z,0
2018-02-24T03:33:37.434Z,0
2018-02-24T03:34:37.452Z,0
2018-02-24T03:35:37.497Z,0
2018-02-24T03:36:37.752Z,0
2018-02-24T03:37:37.762Z,0
2018-02-24T03:38:37.484Z,0
2018-02-24T03:39:37.522Z,0
2018-02-24T03:40:52.437Z,0
2018-02-24T03:41:51.930Z,0
2018-02-24T03:42:37.560Z,0
2018-02-24T03:43:37.306Z,0
2018-02-24T03:44:37.572Z,0
2018-02-24T03:45:37.843Z,0
2018-02-24T03:46:37.584Z,0
2018-02-24T03:47:37.864Z,0
2018-02-24T03:48:37.870Z,0
2018-02-24T03:49:37.357Z,0
2018-02-24T03:50:37.628Z,0
2018-02-24T03:51:37.376Z,0
2018-02-24T03:52:37.384Z,0
2018-02-24T03:53:37.917Z,0
2018-02-24T03:54:37.932Z,0
2018-02-24T03:55:52.596Z,0
2018-02-24T03:56:37.960Z,0
2018-02-24T03:57:37.970Z,0
2018-02-24T03:58:37.455Z,0
2018-02-24T03:59:38.007Z,0
2018-02-24T04:00:38.006Z,0
2018-02-24T04:01:37.992Z,0
2018-02-24T04:02:38.006Z,0
2018-02-24T04:04:37.783Z,0
2018-02-24T04:05:38.063Z,0
2018-02-24T04:06:38.060Z,0
2018-02-24T04:07:38.085Z,0
2018-02-24T04:08:38.076Z,0
2018-02-24T04:09:38.083Z,0
2018-02-24T04:10:38.098Z,0
2018-02-24T04:11:37.852Z,0
2018-02-24T04:12:37.610Z,0
2018-02-24T04:13:38.120Z,0
2018-02-24T04:14:37.900Z,0
2018-02-24T04:15:37.882Z,0
2018-02-24T04:16:38.478Z,0
2018-02-24T04:17:37.911Z,0
2018-02-24T04:19:38.197Z,0
2018-02-24T04:20:38.194Z,0
2018-02-24T04:21:37.964Z,0
2018-02-24T04:22:38.233Z,0
2018-02-24T04:23:37.982Z,0
2018-02-24T04:24:38.244Z,0
2018-02-24T04:25:38.245Z,0
2018-02-24T04:26:38.246Z,0
2018-02-24T04:28:38.285Z,0
2018-02-24T04:30:38.305Z,0
2018-02-24T04:31:38.306Z,0
2018-02-24T04:33:38.341Z,0
2018-02-24T04:34:38.351Z,0
2018-02-24T04:35:38.374Z,0
2018-02-24T04:36:38.364Z,0
2018-02-24T04:37:53.040Z,0
2018-02-24T04:38:38.392Z,0
2018-02-24T04:39:38.142Z,0
2018-02-24T04:41:38.430Z,0
2018-02-24T04:42:38.419Z,0
2018-02-24T04:43:53.097Z,0
2018-02-24T04:44:38.223Z,0
2018-02-24T04:45:38.208Z,0
2018-02-24T04:46:38.459Z,0
2018-02-24T04:47:38.471Z,0
2018-02-24T04:48:38.508Z,0
2018-02-24T04:49:38.517Z,0
2018-02-24T04:50:38.535Z,0
2018-02-24T04:51:38.532Z,0
2018-02-24T04:52:53.199Z,0
2018-02-24T04:53:38.548Z,0
2018-02-24T04:54:53.212Z,0
2018-02-24T04:55:38.589Z,0
2018-02-24T04:56:38.596Z,0
2018-02-24T04:57:38.599Z,0
2018-02-24T04:58:38.351Z,0
2018-02-24T04:59:53.270Z,0
2018-02-24T05:00:38.637Z,0
2018-02-24T05:01:38.121Z,0
2018-02-24T05:02:38.633Z,0
2018-02-24T05:03:38.685Z,0
2018-02-24T05:04:38.677Z,0
2018-02-24T05:05:38.402Z,0
2018-02-24T05:06:38.433Z,0
2018-02-24T05:07:38.689Z,0
2018-02-24T05:08:53.372Z,0
2018-02-24T05:09:38.720Z,0
2018-02-24T05:10:38.719Z,0
2018-02-24T05:11:38.725Z,0
2018-02-24T05:12:38.769Z,0
2018-02-24T05:13:38.775Z,0
2018-02-24T05:14:53.448Z,0
2018-02-24T05:15:53.432Z,0
2018-02-24T05:16:53.454Z,0
2018-02-24T05:17:38.803Z,0
2018-02-24T05:18:38.820Z,0
2018-02-24T05:19:38.815Z,0
2018-02-24T05:20:38.851Z,0
2018-02-24T05:21:53.500Z,0
2018-02-24T05:22:38.618Z,0
2018-02-24T05:23:38.848Z,0
2018-02-24T05:24:38.874Z,0
2018-02-24T05:25:38.890Z,0
2018-02-24T05:26:53.298Z,0
2018-02-24T05:27:38.906Z,0
2018-02-24T05:29:53.586Z,0
2018-02-24T05:31:08.253Z,0
2018-02-24T05:31:38.697Z,0
2018-02-24T05:32:38.819Z,0
2018-02-24T05:33:53.623Z,0
2018-02-24T05:34:53.388Z,0
2018-02-24T05:35:39.002Z,0
2018-02-24T05:36:39.012Z,0
2018-02-24T05:37:38.741Z,0
2018-02-24T05:38:39.050Z,0
2018-02-24T05:39:39.036Z,0
2018-02-24T05:40:53.734Z,0
2018-02-24T05:41:39.071Z,0
2018-02-24T05:42:38.807Z,0
2018-02-24T05:43:39.073Z,0
2018-02-24T05:44:39.081Z,0
2018-02-24T05:45:53.756Z,0
2018-02-24T05:46:53.778Z,0
2018-02-24T05:47:38.873Z,0
2018-02-24T05:48:39.133Z,0
2018-02-24T05:49:39.144Z,0
2018-02-24T05:50:39.175Z,0
2018-02-24T05:51:39.184Z,0
2018-02-24T05:52:39.190Z,0
2018-02-24T05:53:38.948Z,0
2018-02-24T05:54:39.221Z,0
2018-02-24T05:55:39.305Z,0
2018-02-24T05:56:39.218Z,5
2018-02-24T05:57:39.006Z,5
2018-02-24T05:58:39.241Z,5
2018-02-24T05:59:39.258Z,5
2018-02-24T06:00:39.290Z,5
2018-02-24T06:01:39.291Z,5
2018-02-24T06:02:53.670Z,5
2018-02-24T06:03:53.946Z,5
2018-02-24T06:04:39.321Z,10
2018-02-24T06:05:39.056Z,10
2018-02-24T06:06:53.978Z,10
2018-02-24T06:07:39.451Z,10
2018-02-24T06:08:39.090Z,10
2018-02-24T06:09:39.140Z,15
2018-02-24T06:10:39.368Z,15
2018-02-24T06:11:39.390Z,15
2018-02-24T06:12:39.133Z,15
2018-02-24T06:13:39.406Z,15
2018-02-24T06:14:39.427Z,20
2018-02-24T06:15:39.428Z,20
2018-02-24T06:16:39.438Z,20
2018-02-24T06:17:39.484Z,20
2018-02-24T06:18:54.102Z,25
2018-02-24T06:19:39.482Z,25
2018-02-24T06:21:39.518Z,25
2018-02-24T06:22:39.510Z,30
2018-02-24T06:23:39.515Z,30
2018-02-24T06:24:39.529Z,30
2018-02-24T06:26:39.532Z,35
2018-02-24T06:27:39.559Z,40
2018-02-24T06:28:39.565Z,45
2018-02-24T06:29:39.608Z,45
2018-02-24T06:30:39.334Z,65
2018-02-24T06:31:39.597Z,150
2018-02-24T06:32:39.625Z,170
2018-02-24T06:33:54.275Z,280
2018-02-24T06:34:54.290Z,345
2018-02-24T06:35:54.306Z,365
2018-02-24T06:36:54.319Z,385
2018-02-24T06:37:39.402Z,400
2018-02-24T06:38:39.690Z,295
2018-02-24T06:39:39.782Z,210
2018-02-24T06:40:54.110Z,410
2018-02-24T06:41:39.719Z,455
2018-02-24T06:42:39.473Z,475
2018-02-24T06:43:39.476Z,495
2018-02-24T06:44:39.511Z,530
2018-02-24T06:46:39.269Z,315
2018-02-24T06:47:39.560Z,120
2018-02-24T06:48:39.589Z,70
2018-02-24T06:49:39.574Z,70
2018-02-24T06:50:54.504Z,75
2018-02-24T06:51:39.598Z,120
2018-02-24T06:52:39.644Z,225
2018-02-24T06:53:39.898Z,375
2018-02-24T06:54:39.674Z,495
2018-02-24T06:55:39.655Z,520
2018-02-24T06:56:40.052Z,520
2018-02-24T06:57:39.678Z,470
2018-02-24T06:58:39.693Z,445
2018-02-24T06:59:39.973Z,465
2018-02-24T07:00:39.728Z,495
2018-02-24T07:01:39.752Z,515
2018-02-24T07:02:40.019Z,555
2018-02-24T07:03:40.046Z,550
2018-02-24T07:04:39.800Z,470
2018-02-24T07:06:40.094Z,450
2018-02-24T07:07:39.849Z,470
2018-02-24T07:08:39.864Z,470
2018-02-24T07:09:40.126Z,490
2018-02-24T07:10:54.544Z,595
2018-02-24T07:11:39.903Z,640
2018-02-24T07:12:39.663Z,700
2018-02-24T07:13:39.686Z,720
2018-02-24T07:14:39.720Z,675
2018-02-24T07:15:54.892Z,780
2018-02-24T07:16:39.732Z,810
2018-02-24T07:17:54.918Z,680
2018-02-24T07:18:40.284Z,695
2018-02-24T07:19:54.692Z,755
2018-02-24T07:20:40.310Z,585
2018-02-24T07:21:40.072Z,565
2018-02-24T07:22:39.820Z,565
2018-02-24T07:23:55.030Z,295
2018-02-24T07:24:40.478Z,205
2018-02-24T07:25:40.405Z,175
2018-02-24T07:26:40.414Z,175
2018-02-24T07:27:40.434Z,180
2018-02-24T07:28:40.441Z,185
2018-02-24T07:30:54.885Z,190
2018-02-24T07:31:55.159Z,180
2018-02-24T07:32:55.181Z,165
2018-02-24T07:33:40.541Z,155
2018-02-24T07:34:40.544Z,160
2018-02-24T07:35:40.304Z,155
2018-02-24T07:36:40.328Z,170
2018-02-24T07:37:55.248Z,185
2018-02-24T07:38:40.116Z,195
2018-02-24T07:39:40.641Z,195
2018-02-24T07:40:40.412Z,180
2018-02-24T07:41:40.688Z,190
2018-02-24T07:42:55.356Z,210
2018-02-24T07:43:40.708Z,210
2018-02-24T07:44:40.727Z,210
2018-02-24T07:45:55.386Z,200
2018-02-24T07:46:40.591Z,185
2018-02-24T07:47:55.479Z,195
2018-02-24T07:48:55.434Z,220
2018-02-24T07:49:40.800Z,220
2018-02-24T07:50:40.832Z,215
2018-02-24T07:51:40.579Z,210
2018-02-24T07:52:40.605Z,205
2018-02-24T07:54:10.192Z,205
2018-02-24T07:54:40.897Z,210
2018-02-24T07:55:40.745Z,200
2018-02-24T07:56:40.921Z,190
2018-02-24T07:57:55.601Z,190
2018-02-24T07:58:40.705Z,195
2018-02-24T07:59:41.034Z,195
2018-02-24T08:00:55.631Z,180
2018-02-24T08:01:40.751Z,195
2018-02-24T08:02:55.669Z,200
2018-02-24T08:03:55.698Z,210
2018-02-24T08:04:41.091Z,215
2018-02-24T08:05:41.060Z,215
2018-02-24T08:06:55.742Z,215
2018-02-24T08:07:55.774Z,215
2018-02-24T08:08:41.128Z,215
2018-02-24T08:09:55.808Z,215
2018-02-24T08:10:41.165Z,215
2018-02-24T08:11:41.166Z,210
2018-02-24T08:13:55.869Z,210
2018-02-24T08:14:55.350Z,210
2018-02-24T08:15:55.888Z,210
2018-02-24T08:16:41.243Z,215
2018-02-24T08:17:41.400Z,215
2018-02-24T08:18:40.977Z,215
2018-02-24T08:19:41.301Z,215
2018-02-24T08:20:41.319Z,215
2018-02-24T08:21:41.331Z,215
2018-02-24T08:22:56.002Z,215
2018-02-24T08:23:41.383Z,215
2018-02-24T08:24:41.381Z,220
2018-02-24T08:25:55.802Z,220
2018-02-24T08:26:41.141Z,220
2018-02-24T08:27:41.158Z,220
2018-02-24T08:28:56.103Z,185
2018-02-24T08:29:41.459Z,220
2018-02-24T08:30:41.467Z,215
2018-02-24T08:31:41.477Z,210
2018-02-24T08:32:41.230Z,215
2018-02-24T08:33:55.915Z,220
2018-02-24T08:34:56.190Z,215
2018-02-24T08:36:41.564Z,215
2018-02-24T08:37:41.333Z,140
2018-02-24T08:38:41.330Z,150
2018-02-24T08:39:41.605Z,215
2018-02-24T08:40:56.041Z,210
2018-02-24T08:41:41.640Z,205
2018-02-24T08:42:56.064Z,195
2018-02-24T08:43:41.693Z,210
2018-02-24T08:44:41.690Z,210
2018-02-24T08:45:41.198Z,215
2018-02-24T08:46:41.464Z,210
2018-02-24T08:47:41.488Z,205
2018-02-24T08:48:40.985Z,190
2018-02-24T08:49:41.514Z,195
2018-02-24T08:50:56.420Z,180
2018-02-24T08:51:41.800Z,175
2018-02-24T08:52:41.560Z,175
2018-02-24T08:53:41.310Z,175
2018-02-24T08:54:41.840Z,175
2018-02-24T08:55:41.615Z,195
2018-02-24T08:56:41.612Z,205
2018-02-24T08:57:56.028Z,200
2018-02-24T08:58:41.902Z,185
2018-02-24T08:59:56.775Z,215
2018-02-24T09:00:41.659Z,215
2018-02-24T09:01:41.928Z,215
2018-02-24T09:02:41.707Z,210
2018-02-24T09:03:41.731Z,210
2018-02-24T09:04:41.742Z,200
2018-02-24T09:05:56.392Z,180
2018-02-24T09:06:42.034Z,185
2018-02-24T09:07:41.801Z,180
2018-02-24T09:08:41.541Z,185
2018-02-24T09:09:41.815Z,125
2018-02-24T09:10:41.811Z,205
2018-02-24T09:11:41.582Z,220
2018-02-24T09:13:11.422Z,165
2018-02-24T09:13:41.880Z,135
2018-02-24T09:14:41.880Z,195
2018-02-24T09:15:42.159Z,190
2018-02-24T09:16:42.182Z,145
2018-02-24T09:17:41.928Z,145
2018-02-24T09:18:56.598Z,190
2018-02-24T09:20:41.701Z,200
2018-02-24T09:21:42.001Z,185
2018-02-24T09:22:56.404Z,205
2018-02-24T09:23:56.934Z,175
2018-02-24T09:24:42.035Z,130
2018-02-24T09:25:56.716Z,195
2018-02-24T09:26:41.799Z,200
2018-02-24T09:27:42.071Z,190
2018-02-24T09:29:41.846Z,190
2018-02-24T09:30:42.146Z,195
2018-02-24T09:31:42.195Z,190
2018-02-24T09:32:42.154Z,170
2018-02-24T09:33:42.436Z,130
2018-02-24T09:34:42.436Z,135
2018-02-24T09:35:42.188Z,130
2018-02-24T09:37:57.151Z,175
2018-02-24T09:38:42.553Z,175
2018-02-24T09:40:42.545Z,205
2018-02-24T09:41:42.532Z,165
2018-02-24T09:42:42.306Z,170
2018-02-24T09:43:42.050Z,165
2018-02-24T09:44:57.256Z,170
2018-02-24T09:45:42.328Z,170
2018-02-24T09:46:42.598Z,155
2018-02-24T09:47:42.387Z,175
2018-02-24T09:48:42.123Z,185
2018-02-24T09:49:42.657Z,180
2018-02-24T09:50:42.531Z,190
2018-02-24T09:51:42.696Z,190
2018-02-24T09:52:42.698Z,130
2018-02-24T09:53:42.734Z,190
2018-02-24T09:54:42.483Z,180
2018-02-24T09:55:42.759Z,190
2018-02-24T09:56:42.506Z,200
2018-02-24T09:57:42.801Z,205
2018-02-24T09:58:42.605Z,210
2018-02-24T09:59:42.790Z,210
2018-02-24T10:00:57.478Z,215
2018-02-24T10:01:42.331Z,215
2018-02-24T10:02:57.241Z,220
2018-02-24T10:03:42.872Z,215
2018-02-24T10:04:42.873Z,220
2018-02-24T10:05:42.647Z,210
2018-02-24T10:06:42.917Z,190
2018-02-24T10:07:57.571Z,170
2018-02-24T10:08:57.597Z,130
2018-02-24T10:09:42.964Z,135
2018-02-24T10:10:42.976Z,160
2018-02-24T10:11:42.725Z,150
2018-02-24T10:12:43.012Z,140
2018-02-24T10:13:42.764Z,140
2018-02-24T10:14:42.774Z,150
2018-02-24T10:15:57.705Z,155
2018-02-24T10:16:43.072Z,155
2018-02-24T10:17:43.051Z,140
2018-02-24T10:18:57.752Z,145
2018-02-24T10:19:43.098Z,145
2018-02-24T10:20:57.611Z,145
2018-02-24T10:21:42.880Z,135
2018-02-24T10:22:57.524Z,135
2018-02-24T10:23:43.172Z,130
2018-02-24T10:24:42.909Z,135
2018-02-24T10:25:43.183Z,135
2018-02-24T10:26:57.864Z,135
2018-02-24T10:27:43.217Z,140
2018-02-24T10:28:43.235Z,165
2018-02-24T10:29:43.237Z,170
2018-02-24T10:30:57.924Z,170
2018-02-24T10:31:43.044Z,165
2018-02-24T10:32:57.930Z,170
2018-02-24T10:33:43.302Z,160
2018-02-24T10:34:43.057Z,140
2018-02-24T10:35:43.322Z,120
2018-02-24T10:36:43.365Z,125
2018-02-24T10:37:43.406Z,130
2018-02-24T10:38:43.384Z,135
2018-02-24T10:39:43.407Z,140
2018-02-24T10:40:42.873Z,150
2018-02-24T10:41:43.153Z,155
2018-02-24T10:42:58.096Z,150
2018-02-24T10:43:43.424Z,150
2018-02-24T10:44:43.462Z,140
2018-02-24T10:46:43.459Z,135
2018-02-24T10:47:58.144Z,140
2018-02-24T10:48:58.193Z,145
2018-02-24T10:49:58.019Z,140
2018-02-24T10:50:58.194Z,125
2018-02-24T10:51:43.286Z,125
2018-02-24T10:52:43.309Z,125
2018-02-24T10:53:43.579Z,120
2018-02-24T10:54:43.348Z,110
2018-02-24T10:55:43.347Z,100
2018-02-24T10:56:43.711Z,95
2018-02-24T10:57:43.648Z,95
2018-02-24T10:58:43.649Z,95
2018-02-24T11:00:43.660Z,105
2018-02-24T11:01:58.342Z,110
2018-02-24T11:02:43.725Z,110
2018-02-24T11:03:58.348Z,115
2018-02-24T11:04:43.713Z,115
2018-02-24T11:05:43.743Z,110
2018-02-24T11:06:43.750Z,110
2018-02-24T11:07:43.502Z,110
2018-02-24T11:08:58.418Z,110
2018-02-24T11:09:58.442Z,110
2018-02-24T11:10:58.457Z,105
2018-02-24T11:11:43.814Z,110
2018-02-24T11:12:43.561Z,110
2018-02-24T11:13:43.847Z,105
2018-02-24T11:14:43.844Z,105
2018-02-24T11:16:43.628Z,110
2018-02-24T11:17:43.636Z,105
2018-02-24T11:18:58.559Z,110
2018-02-24T11:20:13.219Z,110
2018-02-24T11:20:43.925Z,110
2018-02-24T11:21:43.944Z,110
2018-02-24T11:22:58.633Z,110
2018-02-24T11:23:43.705Z,110
2018-02-24T11:24:43.461Z,110
2018-02-24T11:26:44.009Z,110
2018-02-24T11:27:44.015Z,110
2018-02-24T11:28:44.034Z,110
2018-02-24T11:29:43.797Z,110
2018-02-24T11:30:44.059Z,110
2018-02-24T11:31:44.074Z,110
2018-02-24T11:32:43.824Z,110
2018-02-24T11:33:44.110Z,110
2018-02-24T11:34:44.130Z,115
2018-02-24T11:35:58.778Z,115
2018-02-24T11:36:43.922Z,110
2018-02-24T11:37:44.143Z,105
2018-02-24T11:38:43.916Z,115
2018-02-24T11:39:44.172Z,115
2018-02-24T11:40:44.203Z,115
2018-02-24T11:41:43.938Z,115
2018-02-24T11:42:44.202Z,100
2018-02-24T11:43:44.017Z,115
2018-02-24T11:44:43.968Z,120
2018-02-24T11:45:44.272Z,90
2018-02-24T11:46:44.376Z,120
2018-02-24T11:47:44.017Z,95
2018-02-24T11:48:44.268Z,100
2018-02-24T11:49:58.706Z,115
2018-02-24T11:51:13.633Z,120
2018-02-24T11:51:44.072Z,115
2018-02-24T11:52:44.350Z,120
2018-02-24T11:53:58.992Z,120
2018-02-24T11:54:58.758Z,120
2018-02-24T11:55:59.028Z,120
2018-02-24T11:56:44.400Z,120
2018-02-24T11:57:44.403Z,120
2018-02-24T11:58:44.417Z,125
2018-02-24T11:59:44.181Z,125
2018-02-24T12:00:44.425Z,125
2018-02-24T12:01:44.436Z,125
2018-02-24T12:02:44.480Z,125
2018-02-24T12:03:44.479Z,125
2018-02-24T12:04:44.513Z,125
2018-02-24T12:05:44.492Z,125
2018-02-24T12:06:44.256Z,125
2018-02-24T12:07:59.240Z,125
2018-02-24T12:08:44.616Z,125
2018-02-24T12:09:44.544Z,125
2018-02-24T12:10:44.556Z,125
2018-02-24T12:11:44.576Z,130
2018-02-24T12:12:44.582Z,130
2018-02-24T12:13:44.744Z,130
2018-02-24T12:14:44.114Z,130
2018-02-24T12:15:44.369Z,135
2018-02-24T12:16:44.743Z,135
2018-02-24T12:17:44.667Z,135
2018-02-24T12:18:44.673Z,135
2018-02-24T12:19:44.702Z,135
2018-02-24T12:20:44.705Z,135
2018-02-24T12:21:44.708Z,130
2018-02-24T12:23:14.028Z,130
2018-02-24T12:23:44.733Z,130
2018-02-24T12:24:44.481Z,130
2018-02-24T12:25:44.768Z,130
2018-02-24T12:26:44.772Z,100
2018-02-24T12:28:44.792Z,120
2018-02-24T12:29:44.534Z,130
2018-02-24T12:30:59.476Z,125
2018-02-24T12:32:44.837Z,120
2018-02-24T12:33:44.850Z,115
2018-02-24T12:35:44.892Z,120
2018-02-24T12:36:44.888Z,120
2018-02-24T12:37:44.904Z,125
2018-02-24T12:38:59.603Z,115
2018-02-24T12:39:44.938Z,110
2018-02-24T12:40:44.688Z,125
2018-02-24T12:41:44.980Z,125
2018-02-24T12:42:44.712Z,125
2018-02-24T12:43:45.181Z,125
2018-02-24T12:44:44.742Z,125
2018-02-24T12:45:45.008Z,125
2018-02-24T12:46:45.606Z,130
2018-02-24T12:47:45.037Z,120
2018-02-24T12:48:45.048Z,120
2018-02-24T12:49:59.798Z,90
2018-02-24T12:50:45.098Z,110
2018-02-24T12:51:59.739Z,115
2018-02-24T12:52:44.849Z,115
2018-02-24T12:53:59.874Z,105
2018-02-24T12:54:59.791Z,120
2018-02-24T12:55:59.785Z,120
2018-02-24T12:56:45.163Z,125
2018-02-24T12:57:45.197Z,125
2018-02-24T12:58:45.180Z,125
2018-02-24T12:59:45.207Z,125
2018-02-24T13:00:45.206Z,125
2018-02-24T13:01:59.872Z,120
2018-02-24T13:02:45.219Z,120
2018-02-24T13:03:45.249Z,120
2018-02-24T13:04:45.247Z,120
2018-02-24T13:05:45.023Z,120
2018-02-24T13:06:45.307Z,120
2018-02-24T13:07:45.295Z,120
2018-02-24T13:08:45.071Z,120
2018-02-24T13:09:59.729Z,120
2018-02-24T13:10:59.992Z,115
2018-02-24T13:11:45.345Z,120
2018-02-24T13:12:59.742Z,110
2018-02-24T13:13:45.361Z,120
2018-02-24T13:14:45.395Z,120
2018-02-24T13:15:45.404Z,120
2018-02-24T13:17:00.084Z,120
2018-02-24T13:17:45.404Z,120
2018-02-24T13:18:45.422Z,120
2018-02-24T13:19:45.457Z,105
2018-02-24T13:20:45.450Z,105
2018-02-24T13:21:45.503Z,115
2018-02-24T13:22:45.333Z,115
2018-02-24T13:23:45.505Z,105
2018-02-24T13:24:45.526Z,115
2018-02-24T13:26:14.830Z,115
2018-02-24T13:26:45.543Z,115
2018-02-24T13:27:45.550Z,100
2018-02-24T13:28:45.561Z,110
2018-02-24T13:30:00.222Z,110
2018-02-24T13:31:00.248Z,115
2018-02-24T13:31:45.617Z,115
2018-02-24T13:32:45.627Z,115
2018-02-24T13:33:45.370Z,120
2018-02-24T13:34:45.634Z,120
2018-02-24T13:35:45.418Z,120
2018-02-24T13:36:45.398Z,120
2018-02-24T13:37:45.163Z,125
2018-02-24T13:39:00.082Z,125
2018-02-24T13:40:00.376Z,125
2018-02-24T13:41:00.381Z,125
2018-02-24T13:41:45.734Z,125
2018-02-24T13:43:00.419Z,125
2018-02-24T13:44:00.412Z,120
2018-02-24T13:44:45.787Z,115
2018-02-24T13:45:45.532Z,115
2018-02-24T13:46:45.799Z,115
2018-02-24T13:47:45.797Z,85
2018-02-24T13:48:45.829Z,80
2018-02-24T13:49:45.841Z,100
2018-02-24T13:50:45.861Z,110
2018-02-24T13:51:45.865Z,110
2018-02-24T13:52:45.889Z,110
2018-02-24T13:53:45.889Z,115
2018-02-24T13:54:45.889Z,105
2018-02-24T13:55:45.934Z,115
2018-02-24T13:57:00.581Z,115
2018-02-24T13:58:00.339Z,85
2018-02-24T13:58:45.960Z,90
2018-02-24T13:59:45.973Z,115
2018-02-24T14:00:46.015Z,115
2018-02-24T14:01:46.005Z,115
2018-02-24T14:02:46.022Z,115
2018-02-24T14:03:46.019Z,115
2018-02-24T14:04:46.039Z,115
2018-02-24T14:05:46.053Z,115
2018-02-24T14:06:46.061Z,115
2018-02-24T14:07:46.080Z,115
2018-02-24T14:08:46.084Z,115
2018-02-24T14:10:00.749Z,115
2018-02-24T14:11:00.249Z,115
2018-02-24T14:13:00.792Z,115
2018-02-24T14:14:00.803Z,120
2018-02-24T14:14:45.896Z,120
2018-02-24T14:15:46.192Z,100
2018-02-24T14:16:45.933Z,115
2018-02-24T14:17:46.190Z,80
2018-02-24T14:18:46.080Z,85
2018-02-24T14:19:45.971Z,100
2018-02-24T14:20:46.237Z,110
2018-02-24T14:22:46.266Z,75
2018-02-24T14:23:46.290Z,65
2018-02-24T14:24:46.022Z,80
2018-02-24T14:26:00.957Z,105
2018-02-24T14:26:46.313Z,105
2018-02-24T14:27:46.392Z,100
2018-02-24T14:28:45.876Z,100
2018-02-24T14:30:01.245Z,100
2018-02-24T14:30:46.121Z,90
2018-02-24T14:31:46.387Z,90
2018-02-24T14:32:46.387Z,100
2018-02-24T14:33:46.136Z,100
2018-02-24T14:34:46.147Z,100
2018-02-24T14:36:01.092Z,100
2018-02-24T14:36:46.182Z,100
2018-02-24T14:37:46.183Z,100
2018-02-24T14:39:01.112Z,100
2018-02-24T14:40:46.228Z,100
2018-02-24T14:41:46.254Z,100
2018-02-24T14:43:00.381Z,100
2018-02-24T14:43:46.257Z,100
2018-02-24T14:45:01.188Z,100
2018-02-24T14:46:01.214Z,100
2018-02-24T14:47:46.583Z,100
2018-02-24T14:48:46.337Z,100
2018-02-24T14:49:46.349Z,100
2018-02-24T14:50:46.354Z,100
2018-02-24T14:52:01.033Z,95
2018-02-24T14:52:46.383Z,95